Latest Weather Observations for Mount Crawford

IDS60801

Issued at 5:31 pm CST Monday 25 July 2016 (issued every 30 minutes, with the page automatically refreshed every 10 minutes)

About weather observations | Map of weather stations | Latest weather observations for SA | Other Formats
Station Details ID: 023878 Name: MOUNT CRAWFORD AWS Lat: -34.73 Lon: 138.93 Height: 525.0 m
Data from the previous 72 hours. | See also: Recent months at Mount Crawford
Date/Time
CST
Temp
°C
App
Temp
°C
Dew
Point
°C
Rel
Hum
%
Delta-T
°C
Wind Press
QNH
hPa
Press
MSL
hPa
Rain since
9am
mm
Dir  Spd
km/h
Gust
km/h
Spd
kts
Gust
kts
25/05:30pm 6.9 -2.0 6.9 100 0.0 WSW 43 69 23 37 1011.3 1011.7 9.6
25/05:00pm 7.2 -1.2 7.2 100 0.0 WSW 41 67 22 36 1011.1 1011.4 9.4
25/04:30pm 8.4 -1.5 8.4 100 0.0 WSW 50 72 27 39 1010.4 1010.8 9.2
25/04:00pm 8.7 1.0 8.7 100 0.0 W 39 65 21 35 1010.4 1010.8 7.8
25/03:58pm 8.7 1.0 8.7 100 0.0 W 39 65 21 35 1010.4 1010.8 7.6
25/03:32pm 8.5 -0.6 8.5 100 0.0 WNW 46 65 25 35 1010.1 1010.5 4.6
25/03:30pm 8.5 -1.0 8.5 100 0.0 WNW 48 61 26 33 1010.1 1010.5 4.6
25/03:00pm 8.3 -0.8 8.3 100 0.0 WNW 46 65 25 35 1010.5 1010.9 3.8
25/02:30pm 8.0 -0.2 8.0 100 0.0 WNW 41 65 22 35 1010.7 1011.1 2.2
25/02:04pm 8.0 0.1 8.0 100 0.0 WNW 39 57 21 31 1010.9 1011.3 1.4
25/02:00pm 7.9 0.4 7.9 100 0.0 WNW 37 50 20 27 1011.2 1011.5 1.4
25/01:30pm 7.7 -1.6 7.7 100 0.0 WNW 46 78 25 42 1011.5 1011.9 0.6
25/01:00pm 7.7 -2.0 7.7 100 0.0 WNW 48 67 26 36 1011.7 1012.1 0.4
25/12:30pm 8.3 0.1 8.3 100 0.0 W 41 63 22 34 1012.1 1012.5 0.0
25/12:00pm 8.1 -1.1 8.1 100 0.0 W 46 70 25 38 1012.3 1012.7 0.0
25/11:30am 7.6 -0.7 7.6 100 0.0 WNW 41 61 22 33 1012.7 1013.1 0.0
25/11:00am 7.1 -1.4 7.1 100 0.0 WNW 41 65 22 35 1013.2 1013.6 0.0
25/10:33am 7.0 0.0 7.0 100 0.0 WNW 33 63 18 34 1013.3 1013.7 0.0
25/10:30am 6.9 -0.1 6.9 100 0.0 WNW 33 44 18 24 1013.5 1013.9 0.0
25/10:00am 6.0 -1.0 6.0 100 0.0 WNW 32 50 17 27 1014.0 1014.4 0.0
25/09:41am 5.9 -1.3 5.9 100 0.0 WNW 33 52 18 28 1014.0 1014.4 0.0
25/09:30am 5.8 -1.2 5.8 100 0.0 WNW 32 44 17 24 1013.9 1014.3 0.0
25/09:02am 5.3 -1.8 5.3 100 0.0 WNW 32 50 17 27 1013.6 1014.0 0.0
25/09:00am 5.3 -1.8 5.3 100 0.0 WNW 32 46 17 25 1013.6 1014.0 12.6
25/08:30am 5.3 -1.8 5.3 100 0.0 WNW 32 44 17 24 1013.5 1013.9 12.6
25/08:00am 5.3 -1.1 5.3 100 0.0 W 28 43 15 23 1013.4 1013.8 12.6
25/07:30am 5.3 -1.5 5.3 100 0.0 WNW 30 41 16 22 1013.6 1014.0 12.6
25/07:00am 5.6 -0.7 5.6 100 0.0 W 28 43 15 23 1013.5 1013.9 12.6
25/06:30am 5.8 -0.9 5.8 100 0.0 W 30 44 16 24 1013.4 1013.8 12.6
25/06:00am 5.8 -0.1 5.8 100 0.0 W 26 37 14 20 1013.3 1013.7 12.6
25/05:30am 5.8 -0.5 5.8 100 0.0 W 28 37 15 20 1013.3 1013.7 12.6
25/05:00am 5.8 -0.5 5.8 100 0.0 W 28 35 15 19 1013.2 1013.6 12.6
25/04:30am 5.7 -0.6 5.7 100 0.0 W 28 39 15 21 1012.7 1013.1 12.6
25/04:00am 5.8 -1.2 5.8 100 0.0 WSW 32 44 17 24 1012.7 1013.1 12.4
25/03:30am 5.7 -1.4 5.7 100 0.0 W 32 44 17 24 1012.8 1013.3 12.4
25/03:00am 5.7 -0.2 5.7 100 0.0 W 26 35 14 19 1013.1 1013.5 12.4
25/02:30am 5.9 -0.4 5.9 100 0.0 WSW 28 39 15 21 1013.1 1013.5 12.4
25/02:00am 5.8 -0.5 5.8 100 0.0 WSW 28 41 15 22 1012.9 1013.4 12.4
25/01:30am 5.9 -0.7 5.9 100 0.0 WSW 30 46 16 25 1012.7 1013.1 12.4
25/01:00am 5.8 -1.8 5.8 100 0.0 WSW 35 57 19 31 1012.3 1012.7 12.0
25/12:30am 5.9 -2.1 5.9 100 0.0 W 37 59 20 32 1011.9 1012.3 11.8
25/12:00am 6.0 -1.6 6.0 100 0.0 W 35 54 19 29 1011.9 1012.3 11.0
 
Date/Time
CST
Temp
°C
App
Temp
°C
Dew
Point
°C
Rel
Hum
%
Delta-T
°C
Wind Press
QNH
hPa
Press
MSL
hPa
Rain since
9am
mm
Dir  Spd
km/h
Gust
km/h
Spd
kts
Gust
kts
24/11:33pm 6.0 -2.3 5.9 99 0.0 WSW 39 65 21 35 1011.4 1011.8 10.2
24/11:30pm 6.1 -1.8 6.0 99 0.0 WSW 37 52 20 28 1011.6 1012.0 10.0
24/11:04pm 6.3 -1.6 6.2 99 0.0 W 37 59 20 32 1011.2 1011.5 9.6
24/11:00pm 6.3 -1.6 6.2 99 0.0 W 37 52 20 28 1011.3 1011.7 9.6
24/10:30pm 6.3 -2.4 6.2 99 0.0 W 41 67 22 36 1010.9 1011.3 9.6
24/10:00pm 6.5 -2.5 6.4 99 0.0 W 43 63 23 34 1010.5 1010.9 9.6
24/09:30pm 6.6 -2.4 6.5 99 0.0 W 43 61 23 33 1010.1 1010.5 9.6
24/09:00pm 6.8 -3.1 6.7 99 0.0 W 48 67 26 36 1009.7 1010.1 9.6
24/08:30pm 6.7 -3.2 6.7 100 0.0 W 48 76 26 41 1009.2 1009.5 9.6
24/08:00pm 6.7 -2.8 6.7 100 0.0 W 46 69 25 37 1009.1 1009.4 9.2
24/07:30pm 6.6 -4.1 6.6 100 0.0 W 52 74 28 40 1008.4 1008.8 9.0
24/07:00pm 6.6 -4.1 6.6 100 0.0 W 52 74 28 40 1007.8 1008.1 9.0
24/06:30pm 6.4 -3.5 6.4 100 0.0 W 48 72 26 39 1007.6 1007.9 8.8
24/06:00pm 6.5 -3.0 6.5 100 0.0 W 46 65 25 35 1007.4 1007.7 8.6
24/05:48pm 6.6 -3.7 6.5 99 0.0 W 50 87 27 47 1007.0 1007.3 8.6
24/05:31pm 6.5 -3.1 6.4 99 0.0 W 46 65 25 35 1006.8 1007.2 8.0
24/05:30pm 6.5 -3.4 6.4 99 0.0 W 48 65 26 35 1006.8 1007.2 8.0
24/05:00pm 6.9 -3.5 6.0 94 0.4 W 50 70 27 38 1006.5 1006.9 8.0
24/04:30pm 7.0 -3.2 5.2 88 0.8 W 48 74 26 40 1006.3 1006.6 7.8
24/04:00pm 7.2 -3.6 5.8 91 0.6 W 52 82 28 44 1005.8 1006.1 7.8
24/03:30pm 6.9 -3.6 5.7 92 0.6 W 50 74 27 40 1005.8 1006.1 7.8
24/03:00pm 5.9 -4.9 5.8 99 0.0 W 52 70 28 38 1005.8 1006.1 7.8
24/02:30pm 6.6 -4.9 4.3 85 1.0 W 54 80 29 43 1005.1 1005.4 7.6
24/02:00pm 7.0 -4.5 4.3 83 1.2 W 54 87 29 47 1005.0 1005.3 7.6
24/01:30pm 6.5 -3.4 6.5 100 0.0 W 48 72 26 39 1005.5 1005.8 7.6
24/01:00pm 5.3 -4.1 5.3 100 0.0 W 44 67 24 36 1005.5 1005.8 7.6
24/12:30pm 5.0 -5.2 5.0 100 0.0 W 48 83 26 45 1005.7 1006.0 7.4
24/12:25pm 5.1 -4.4 5.1 100 0.0 WNW 44 74 24 40 1005.9 1006.2 7.4
24/12:00pm 5.1 -2.7 5.1 100 0.0 WNW 35 56 19 30 1006.2 1006.5 7.0
24/11:36am 4.8 -3.0 4.8 100 0.0 W 35 61 19 33 1006.6 1007.0 6.8
24/11:30am 4.7 -2.8 4.7 100 0.0 WNW 33 50 18 27 1007.1 1007.4 6.8
24/11:00am 4.3 -4.4 4.3 100 0.0 WNW 39 59 21 32 1007.1 1007.4 6.0
24/10:30am 4.5 -6.6 4.5 100 0.0 WNW 52 89 28 48 1006.7 1007.1 3.4
24/10:24am 4.7 -6.4 4.7 100 0.0 WNW 52 82 28 44 1006.5 1006.9 3.2
24/10:23am 4.6 -6.1 4.6 100 0.0 WNW 50 82 27 44 1006.3 1006.6 3.2
24/10:00am 5.3 -2.8 5.3 100 0.0 WNW 37 80 20 43 1007.0 1007.3 1.4
24/09:30am 6.2 -2.2 5.8 97 0.2 NW 39 63 21 34 1006.7 1007.1 0.0
24/09:00am 6.1 -1.1 6.0 99 0.0 NW 33 52 18 28 1007.3 1007.6 0.6
24/08:37am 5.8 -1.4 5.8 100 0.0 NW 33 52 18 28 1007.5 1007.8 0.6
24/08:30am 5.7 -1.5 5.7 100 0.0 NW 33 48 18 26 1007.6 1007.9 0.6
24/08:12am 5.5 -1.6 5.5 100 0.0 NW 32 50 17 27 1007.7 1008.0 0.6
24/08:00am 5.4 -1.9 5.4 100 0.0 NW 33 48 18 26 1007.7 1008.0 0.6
24/07:41am 5.3 -1.5 5.3 100 0.0 NW 30 50 16 27 1007.9 1008.2 0.6
24/07:30am 5.2 -2.0 5.1 99 0.0 NW 32 44 17 24 1008.0 1008.4 0.4
24/07:00am 5.1 -1.7 5.0 99 0.0 NW 30 48 16 26 1008.1 1008.5 0.4
24/06:58am 5.2 -1.6 5.1 99 0.0 NW 30 48 16 26 1008.1 1008.5 0.4
24/06:30am 5.0 -1.5 4.9 99 0.0 NW 28 39 15 21 1008.2 1008.6 0.4
24/06:00am 5.4 -1.1 4.5 94 0.4 NW 28 39 15 21 1008.2 1008.6 0.2
24/05:30am 5.4 -1.5 4.5 94 0.4 NW 30 41 16 22 1008.4 1008.8 0.2
24/05:16am 5.3 -1.2 4.6 95 0.3 NNW 28 46 15 25 1008.4 1008.8 0.2
24/05:00am 5.3 -1.2 4.9 97 0.2 NW 28 39 15 21 1008.7 1009.1 0.2
24/04:30am 5.0 -1.1 4.9 99 0.0 NNW 26 35 14 19 1008.9 1009.3 0.2
24/04:00am 4.7 -1.1 4.6 99 0.0 NNW 24 32 13 17 1009.6 1009.9 0.2
24/03:30am 4.4 -1.0 4.3 99 0.0 NNW 22 32 12 17 1009.9 1010.3 0.2
24/03:00am 4.3 -0.8 4.3 100 0.0 NNW 20 30 11 16 1010.3 1010.7 0.2
24/02:30am 4.2 -0.9 4.2 100 0.0 NNW 20 26 11 14 1010.7 1011.1 0.2
24/02:00am 4.2 -0.7 4.2 100 0.0 NNW 19 30 10 16 1011.3 1011.7 0.2
24/01:30am 4.1 -0.4 4.1 100 0.0 N 17 22 9 12 1011.7 1012.1 0.2
24/01:00am 4.1 -0.4 4.1 100 0.0 NNW 17 22 9 12 1012.2 1012.6 0.2
24/12:30am 4.3 -0.2 4.3 100 0.0 NNW 17 20 9 11 1012.6 1013.0 0.2
24/12:00am 4.4 0.7 4.4 100 0.0 NNW 13 19 7 10 1013.2 1013.6 0.2
 
Date/Time
CST
Temp
°C
App
Temp
°C
Dew
Point
°C
Rel
Hum
%
Delta-T
°C
Wind Press
QNH
hPa
Press
MSL
hPa
Rain since
9am
mm
Dir  Spd
km/h
Gust
km/h
Spd
kts
Gust
kts
23/11:30pm 4.5 0.1 4.5 100 0.0 NW 17 22 9 12 1013.3 1013.7 0.2
23/11:00pm 4.7 0.7 4.7 100 0.0 NNW 15 20 8 11 1013.6 1014.0 0.2
23/10:30pm 4.6 0.5 4.6 100 0.0 N 15 20 8 11 1013.8 1014.2 0.2
23/10:00pm 4.6 0.9 4.6 100 0.0 NNW 13 17 7 9 1014.0 1014.4 0.2
23/09:30pm 4.9 1.6 4.8 99 0.0 NW 11 15 6 8 1014.1 1014.5 0.2
23/09:00pm 4.9 0.9 4.8 99 0.0 W 15 22 8 12 1014.2 1014.6 0.2
23/08:30pm 5.3 1.7 5.2 99 0.0 NW 13 17 7 9 1014.1 1014.5 0.0
23/08:00pm 5.3 2.1 5.2 99 0.0 WNW 11 17 6 9 1014.3 1014.7 0.0
23/07:30pm 5.4 1.8 5.0 97 0.2 W 13 17 7 9 1014.3 1014.7 0.0
23/07:00pm 5.6 1.6 4.7 94 0.4 WNW 15 20 8 11 1014.1 1014.5 0.0
23/06:30pm 5.8 1.8 4.8 93 0.4 WNW 15 20 8 11 1014.0 1014.4 0.0
23/06:00pm 6.0 1.5 4.3 89 0.8 W 17 24 9 13 1013.8 1014.2 0.0
23/05:30pm 6.3 1.8 4.0 85 1.0 W 17 24 9 13 1013.6 1014.0 0.0
23/05:00pm 6.7 1.8 4.0 83 1.2 W 19 24 10 13 1013.5 1013.9 0.0
23/04:30pm 7.0 1.9 3.3 77 1.6 W 19 26 10 14 1013.6 1014.0 0.0
23/04:00pm 8.2 3.0 3.7 73 2.0 W 20 33 11 18 1013.5 1013.9 0.0
23/03:30pm 8.3 3.3 3.6 72 2.1 W 19 28 10 15 1013.4 1013.8 0.0
23/03:00pm 8.3 3.2 3.0 69 2.3 WSW 19 32 10 17 1013.3 1013.7 0.0
23/02:30pm 8.3 3.2 3.2 70 2.2 WSW 19 30 10 16 1013.2 1013.6 0.0
23/02:00pm 8.0 2.8 2.7 69 2.3 WSW 19 28 10 15 1013.2 1013.6 0.0
23/01:30pm 8.2 2.1 2.9 69 2.3 W 24 33 13 18 1013.3 1013.7 0.0
23/01:00pm 8.8 3.1 3.0 67 2.6 WSW 22 33 12 18 1013.1 1013.5 0.0
23/12:30pm 7.2 1.8 2.7 73 1.9 WSW 20 32 11 17 1013.4 1013.8 0.0
23/12:00pm 7.9 3.5 4.7 80 1.5 WSW 17 24 9 13 1013.6 1014.0 0.0
23/11:30am 8.0 3.7 5.3 83 1.2 WSW 17 26 9 14 1013.7 1014.1 0.0
23/11:00am 7.2 3.3 5.2 87 0.9 WSW 15 22 8 12 1013.8 1014.2 0.0
23/10:30am 7.4 4.5 6.5 94 0.4 SW 11 17 6 9 1013.7 1014.1 0.0
23/10:00am 6.8 3.6 6.8 100 0.0 WSW 13 22 7 12 1013.4 1013.8 0.0
23/09:30am 6.4 3.1 6.4 100 0.0 SW 13 19 7 10 1013.2 1013.6 0.0
23/09:00am 6.2 3.6 6.2 100 0.0 WSW 9 13 5 7 1012.7 1013.1 20.2
23/08:30am 5.8 2.8 5.8 100 0.0 WSW 11 17 6 9 1012.2 1012.6 20.2
23/08:00am 5.2 1.6 5.2 100 0.0 WSW 13 20 7 11 1011.6 1012.0 20.2
23/07:30am 5.4 1.9 5.4 100 0.0 WSW 13 19 7 10 1011.3 1011.7 20.0
23/07:00am 5.4 1.5 5.4 100 0.0 WSW 15 22 8 12 1010.7 1011.1 20.0
23/06:30am 5.5 1.3 5.5 100 0.0 SW 17 28 9 15 1010.0 1010.4 20.0
23/06:00am 5.6 1.0 5.6 100 0.0 WSW 19 32 10 17 1009.5 1009.8 20.0
23/05:30am 5.8 0.3 5.8 100 0.0 WSW 24 35 13 19 1008.9 1009.3 20.0
23/05:00am 5.9 0.8 5.9 100 0.0 WSW 22 35 12 19 1008.4 1008.8 20.0
23/04:30am 5.8 0.3 5.8 100 0.0 WSW 24 39 13 21 1007.8 1008.1 19.8
23/04:00am 5.8 -0.9 5.8 100 0.0 WSW 30 50 16 27 1007.3 1007.6 19.8
23/03:57am 5.8 -0.9 5.8 100 0.0 WSW 30 50 16 27 1007.2 1007.5 19.8
23/03:30am 5.6 -0.7 5.6 100 0.0 WSW 28 43 15 23 1007.1 1007.4 19.2
23/03:00am 5.3 -1.1 5.3 100 0.0 WSW 28 44 15 24 1007.1 1007.4 17.4
23/02:30am 5.4 -2.7 5.4 100 0.0 WSW 37 57 20 31 1006.7 1007.1 17.0
23/02:08am 6.0 -1.0 6.0 100 0.0 WSW 32 57 17 31 1006.3 1006.6 16.6
23/02:00am 6.1 -1.4 6.1 100 0.0 WSW 35 52 19 28 1006.4 1006.8 16.6
23/01:30am 5.8 -1.8 5.7 99 0.0 WSW 35 54 19 29 1006.1 1006.4 16.6
23/01:00am 6.0 -3.1 5.9 99 0.0 WSW 43 69 23 37 1005.6 1005.9 16.4
23/12:30am 6.3 -3.7 6.2 99 0.0 W 48 69 26 37 1005.2 1005.5 16.2
23/12:11am 6.3 -3.3 6.3 100 0.0 W 46 65 25 35 1004.8 1005.2 16.2
23/12:00am 6.3 -3.3 6.2 99 0.0 W 46 61 25 33 1004.8 1005.2 16.0
 
Date/Time
CST
Temp
°C
App
Temp
°C
Dew
Point
°C
Rel
Hum
%
Delta-T
°C
Wind Press
QNH
hPa
Press
MSL
hPa
Rain since
9am
mm
Dir  Spd
km/h
Gust
km/h
Spd
kts
Gust
kts
22/11:30pm 6.3 -3.7 6.2 99 0.0 W 48 76 26 41 1004.4 1004.7 16.0
22/11:00pm 6.2 -5.0 6.1 99 0.0 W 54 82 29 44 1004.1 1004.4 16.0
22/10:30pm 6.1 -3.6 6.0 99 0.0 W 46 69 25 37 1003.9 1004.2 15.8
22/10:00pm 5.8 -3.0 5.7 99 0.0 W 41 59 22 32 1003.9 1004.2 15.6
22/09:30pm 6.1 -3.3 5.4 95 0.3 W 44 67 24 36 1003.8 1004.1 15.4
22/09:00pm 6.8 -3.0 5.3 90 0.7 W 46 69 25 37 1003.2 1003.5 15.4
22/08:42pm 7.0 -2.9 6.6 97 0.2 W 48 82 26 44 1002.6 1002.9 15.4
22/08:30pm 6.9 -1.6 6.8 99 0.0 W 41 61 22 33 1002.8 1003.1 15.4
22/08:00pm 6.7 -2.3 6.6 99 0.0 W 43 61 23 33 1002.6 1002.9 15.4
22/07:30pm 6.1 -3.0 6.0 99 0.0 W 43 61 23 33 1002.5 1002.8 15.4
22/07:00pm 6.6 -4.5 6.5 99 0.0 W 54 83 29 45 1001.8 1002.1 15.4
22/06:30pm 7.3 -1.7 7.3 100 0.0 W 44 80 24 43 1001.1 1001.3 15.2
22/06:00pm 7.1 -2.7 7.1 100 0.0 W 48 69 26 37 1000.8 1001.1 15.2

Other Formats:

Comma delimited format used in spreadsheet applications
http://www.bom.gov.au/fwo/IDS60801/IDS60801.94678.axf

JavaScript Object Notation format (JSON) in row-major order
http://www.bom.gov.au/fwo/IDS60801/IDS60801.94678.json